createdAt,value
2022-10-13T00:01:24.588Z,98362.59
2022-10-13T00:03:56.015Z,98371.23
2022-10-13T00:06:29.081Z,98371.75
2022-10-13T00:09:01.149Z,98362.23
2022-10-13T00:11:32.930Z,98367.33
2022-10-13T00:14:06.110Z,98367.98
2022-10-13T00:16:37.486Z,98370.70
2022-10-13T00:19:12.892Z,98370.98
2022-10-13T00:21:44.329Z,98368.89
2022-10-13T00:24:15.208Z,98369.48
2022-10-13T00:26:44.876Z,98370.55
2022-10-13T00:29:15.588Z,98370.45
2022-10-13T00:31:46.594Z,98371.25
2022-10-13T00:34:16.043Z,98370.77
2022-10-13T00:36:47.277Z,98366.90
2022-10-13T00:39:18.365Z,98365.14
2022-10-13T00:41:49.492Z,98366.88
2022-10-13T00:44:34.133Z,98362.84
2022-10-13T00:47:08.686Z,98359.60
2022-10-13T00:49:40.229Z,98348.46
2022-10-13T00:52:11.906Z,98346.31
2022-10-13T00:54:43.452Z,98353.42
2022-10-13T00:57:15.053Z,98347.31
2022-10-13T00:59:46.361Z,98344.40
2022-10-13T01:02:16.587Z,98342.47
2022-10-13T01:04:49.476Z,98343.23
2022-10-13T01:07:21.664Z,98336.90
2022-10-13T01:09:52.666Z,98331.48
2022-10-13T01:12:30.394Z,98332.50
2022-10-13T01:15:09.647Z,98331.33
2022-10-13T01:17:56.300Z,98325.46
2022-10-13T01:20:41.233Z,98323.92
2022-10-13T01:23:31.676Z,98321.89
2022-10-13T01:26:18.806Z,98320.61
2022-10-13T01:29:09.055Z,98317.53
2022-10-13T01:31:52.682Z,98315.68
2022-10-13T01:34:28.197Z,98314.90
2022-10-13T01:37:04.519Z,98316.94
2022-10-13T01:39:41.519Z,98319.33
2022-10-13T01:42:18.910Z,98323.19
2022-10-13T01:44:52.616Z,98319.14
2022-10-13T01:47:26.653Z,98316.20
2022-10-13T01:49:59.087Z,98317.65
2022-10-13T01:52:36.459Z,98318.23
2022-10-13T01:55:12.685Z,98314.34
2022-10-13T01:57:45.492Z,98312.20
2022-10-13T02:00:19.317Z,98315.10
2022-10-13T02:03:03.289Z,98316.34
2022-10-13T02:05:39.891Z,98313.61
2022-10-13T02:08:16.739Z,98316.04
2022-10-13T02:14:01.794Z,98303.00
2022-10-13T02:16:36.152Z,98299.59
2022-10-13T02:19:10.473Z,98289.39
2022-10-13T02:21:41.924Z,98292.55
2022-10-13T02:24:13.817Z,98295.95
2022-10-13T02:26:45.160Z,98296.14
2022-10-13T02:29:19.108Z,98298.96
2022-10-13T02:31:50.564Z,98298.34
2022-10-13T02:34:21.640Z,98295.33
2022-10-13T02:36:52.472Z,98294.26
2022-10-13T02:39:22.038Z,98300.39
2022-10-13T02:41:52.906Z,98301.49
2022-10-13T02:44:25.055Z,98297.77
2022-10-13T02:46:56.229Z,98292.49
2022-10-13T02:49:27.415Z,98293.06
2022-10-13T02:51:58.518Z,98297.07
2022-10-13T02:54:29.478Z,98293.10
2022-10-13T02:57:00.601Z,98293.27
2022-10-13T02:59:30.688Z,98296.05
2022-10-13T03:02:01.629Z,98293.83
2022-10-13T03:04:32.906Z,98299.09
2022-10-13T03:07:04.256Z,98294.35
2022-10-13T03:09:35.403Z,98295.66
2022-10-13T03:12:05.133Z,98293.93
2022-10-13T03:14:36.017Z,98296.53
2022-10-13T03:17:08.736Z,98297.39
2022-10-13T03:19:42.182Z,98291.59
2022-10-13T03:22:15.503Z,98290.84
2022-10-13T03:24:47.183Z,98292.34
2022-10-13T03:27:18.296Z,98294.28
2022-10-13T03:29:49.226Z,98298.86
2022-10-13T03:32:20.343Z,98294.03
2022-10-13T03:34:52.229Z,98292.58
2022-10-13T03:37:22.986Z,98298.35
2022-10-13T03:39:53.894Z,98301.85
2022-10-13T03:42:25.093Z,98299.80
2022-10-13T03:44:56.682Z,98302.19
2022-10-13T03:47:30.933Z,98304.58
2022-10-13T03:50:01.814Z,98309.05
2022-10-13T03:52:33.135Z,98309.77
2022-10-13T03:55:04.356Z,98308.98
2022-10-13T03:57:35.147Z,98307.46
2022-10-13T04:00:10.731Z,98306.17
2022-10-13T04:02:41.924Z,98306.44
2022-10-13T04:05:12.059Z,98310.48
2022-10-13T04:07:41.595Z,98315.72
2022-10-13T04:10:12.849Z,98317.59
2022-10-13T04:12:43.824Z,98316.84
2022-10-13T04:15:14.760Z,98310.39
2022-10-13T04:22:06.503Z,98306.29
2022-10-13T04:24:40.714Z,98301.08
2022-10-13T04:27:11.587Z,98303.56
2022-10-13T04:29:42.415Z,98300.52
2022-10-13T04:32:13.233Z,98291.64
2022-10-13T04:34:44.070Z,98299.01
2022-10-13T04:37:15.154Z,98299.22
2022-10-13T04:39:46.313Z,98299.29
2022-10-13T04:42:17.683Z,98299.58
2022-10-13T04:44:48.904Z,98296.02
2022-10-13T04:47:19.738Z,98293.92
2022-10-13T04:49:50.655Z,98289.19
2022-10-13T04:52:22.066Z,98289.41
2022-10-13T04:54:53.290Z,98285.05
2022-10-13T04:57:24.266Z,98283.77
2022-10-13T04:59:55.289Z,98288.38
2022-10-13T05:02:24.841Z,98282.02
2022-10-13T05:04:55.917Z,98281.64
2022-10-13T05:07:27.005Z,98278.46
2022-10-13T05:09:57.966Z,98276.89
2022-10-13T05:12:29.067Z,98270.81
2022-10-13T05:15:00.052Z,98271.98
2022-10-13T05:17:35.260Z,98266.84
2022-10-13T05:20:07.519Z,98266.83
2022-10-13T05:22:38.852Z,98259.41
2022-10-13T05:25:10.345Z,98253.06
2022-10-13T05:27:41.432Z,98251.64
2022-10-13T05:30:14.187Z,98251.36
2022-10-13T05:36:45.183Z,98254.77
2022-10-13T05:39:19.067Z,98255.87
2022-10-13T05:41:49.871Z,98255.67
2022-10-13T05:44:20.758Z,98252.72
2022-10-13T05:46:51.483Z,98254.96
2022-10-13T05:49:22.506Z,98255.38
2022-10-13T05:51:56.729Z,98255.39
2022-10-13T05:54:31.168Z,98252.30
2022-10-13T05:57:07.486Z,98251.64
2022-10-13T05:59:48.467Z,98253.78
2022-10-13T06:02:21.424Z,98255.42
2022-10-13T06:04:57.029Z,98253.44
2022-10-13T06:07:28.225Z,98252.61
2022-10-13T06:09:59.563Z,98257.63
2022-10-13T06:12:30.458Z,98259.55
2022-10-13T06:15:01.363Z,98258.64
2022-10-13T06:17:32.381Z,98258.09
2022-10-13T06:20:05.573Z,98258.30
2022-10-13T06:22:37.594Z,98258.22
2022-10-13T06:25:10.520Z,98255.02
2022-10-13T06:27:41.627Z,98255.89
2022-10-13T06:30:13.726Z,98257.17
2022-10-13T06:32:44.619Z,98256.30
2022-10-13T06:35:15.466Z,98259.41
2022-10-13T06:37:48.688Z,98247.85
2022-10-13T06:40:19.920Z,98250.69
2022-10-13T06:42:53.647Z,98249.34
2022-10-13T06:45:24.933Z,98247.33
2022-10-13T06:47:55.519Z,98244.52
2022-10-13T06:50:27.363Z,98246.24
2022-10-13T06:52:59.307Z,98247.06
2022-10-13T06:55:30.300Z,98242.84
2022-10-13T06:57:59.805Z,98243.06
2022-10-13T07:00:30.789Z,98238.58
2022-10-13T07:03:01.659Z,98238.39
2022-10-13T07:05:32.291Z,98241.31
2022-10-13T07:08:03.067Z,98245.10
2022-10-13T07:10:34.146Z,98249.11
2022-10-13T07:13:05.094Z,98249.81
2022-10-13T07:15:37.960Z,98246.06
2022-10-13T07:18:33.630Z,98246.53
2022-10-13T07:21:08.146Z,98241.38
2022-10-13T07:23:42.917Z,98244.95
2022-10-13T07:26:16.070Z,98243.84
2022-10-13T07:28:47.479Z,98238.38
2022-10-13T07:31:20.223Z,98236.86
2022-10-13T07:33:52.437Z,98238.12
2022-10-13T07:36:23.703Z,98233.48
2022-10-13T07:38:52.950Z,98232.04
2022-10-13T07:41:23.841Z,98229.80
2022-10-13T07:43:56.585Z,98231.52
2022-10-13T07:46:27.948Z,98228.52
2022-10-13T07:48:59.301Z,98229.14
2022-10-13T07:51:30.444Z,98228.59
2022-10-13T07:54:02.305Z,98225.95
2022-10-13T07:56:38.508Z,98222.35
2022-10-13T07:59:09.571Z,98215.36
2022-10-13T08:01:39.379Z,98218.42
2022-10-13T08:04:08.825Z,98212.10
2022-10-13T08:09:12.554Z,98204.43
2022-10-13T08:11:43.537Z,98209.58
2022-10-13T08:14:16.577Z,98212.38
2022-10-13T08:16:52.973Z,98208.48
2022-10-13T08:19:23.365Z,98214.16
2022-10-13T08:21:59.202Z,98210.30
2022-10-13T08:24:31.108Z,98213.36
2022-10-13T08:27:02.969Z,98207.79
2022-10-13T08:29:33.844Z,98209.04
2022-10-13T08:32:05.274Z,98209.24
2022-10-13T08:34:37.201Z,98207.05
2022-10-13T08:37:13.977Z,98205.30
2022-10-13T08:39:45.648Z,98200.85
2022-10-13T08:42:20.795Z,98206.36
2022-10-13T08:45:39.321Z,98200.70
2022-10-13T08:47:50.199Z,98199.73
2022-10-13T08:50:25.304Z,98197.90
2022-10-13T08:52:59.999Z,98196.19
2022-10-13T08:55:35.699Z,98195.38
2022-10-13T08:58:14.480Z,98192.94
2022-10-13T09:00:45.485Z,98193.00
2022-10-13T09:03:26.563Z,98189.20
2022-10-13T09:06:11.931Z,98189.46
2022-10-13T09:08:46.419Z,98182.85
2022-10-13T09:11:17.577Z,98184.89
2022-10-13T09:13:48.965Z,98186.77
2022-10-13T09:16:29.470Z,98183.95
2022-10-13T09:19:21.347Z,98176.73
2022-10-13T09:21:53.821Z,98185.05
2022-10-13T09:24:27.932Z,98184.50
2022-10-13T09:27:12.230Z,98183.33
2022-10-13T09:29:44.253Z,98180.00
2022-10-13T09:32:20.347Z,98182.36
2022-10-13T09:34:52.954Z,98182.93
2022-10-13T09:37:25.580Z,98180.17
2022-10-13T09:40:20.675Z,98183.42
2022-10-13T09:42:54.952Z,98174.86
2022-10-13T09:45:28.002Z,98170.65
2022-10-13T09:48:04.242Z,98174.21
2022-10-13T09:50:36.821Z,98174.00
2022-10-13T09:53:25.075Z,98175.77
2022-10-13T09:56:18.738Z,98172.27
2022-10-13T09:58:59.500Z,98168.36
2022-10-13T10:01:36.185Z,98167.09
2022-10-13T10:04:08.271Z,98165.79
2022-10-13T10:06:40.144Z,98163.77
2022-10-13T10:09:28.453Z,98163.92
2022-10-13T10:12:01.289Z,98163.20
2022-10-13T10:14:34.360Z,98153.93
2022-10-13T10:17:17.017Z,98153.35
2022-10-13T10:19:55.389Z,98144.66
2022-10-13T10:22:35.921Z,98139.41
2022-10-13T10:25:20.216Z,98131.09
2022-10-13T10:28:05.124Z,98122.16
2022-10-13T10:30:44.309Z,98120.02
2022-10-13T10:33:21.199Z,98116.05
2022-10-13T10:35:59.239Z,98113.75
2022-10-13T10:38:43.382Z,98109.59
2022-10-13T10:41:26.363Z,98107.11
2022-10-13T10:44:01.901Z,98106.23
2022-10-13T10:46:36.810Z,98103.27
2022-10-13T10:49:21.619Z,98099.98
2022-10-13T10:51:52.876Z,98099.02
2022-10-13T10:54:34.822Z,98094.36
2022-10-13T10:57:13.860Z,98089.13
2022-10-13T10:59:57.409Z,98091.17
2022-10-13T11:02:46.384Z,98088.50
2022-10-13T11:05:17.983Z,98084.95
2022-10-13T11:08:00.671Z,98083.02
2022-10-13T11:10:32.087Z,98077.27
2022-10-13T11:13:22.499Z,98077.83
2022-10-13T11:15:53.912Z,98080.14
2022-10-13T11:18:55.598Z,98076.96
2022-10-13T11:21:24.887Z,98075.39
2022-10-13T11:23:57.337Z,98071.89
2022-10-13T11:26:41.571Z,98064.38
2022-10-13T11:29:40.572Z,98062.30
2022-10-13T11:32:56.335Z,98056.05
2022-10-13T11:35:31.549Z,98051.95
2022-10-13T11:38:19.009Z,98043.54
2022-10-13T11:41:12.830Z,98039.44
2022-10-13T11:43:54.002Z,98041.52
2022-10-13T11:46:34.010Z,98042.33
2022-10-13T11:55:53.421Z,98037.40
2022-10-13T11:58:26.436Z,98031.13
2022-10-13T12:01:00.276Z,98031.35
2022-10-13T12:03:34.214Z,98027.09
2022-10-13T12:06:07.992Z,98022.39
2022-10-13T12:08:40.362Z,98019.41
2022-10-13T12:11:27.717Z,98016.80
2022-10-13T12:13:59.456Z,98014.27
2022-10-13T12:16:33.849Z,98014.98
2022-10-13T12:19:20.691Z,98007.83
2022-10-13T12:21:56.942Z,98004.52
2022-10-13T12:24:29.828Z,97994.27
2022-10-13T12:27:12.138Z,98000.07
2022-10-13T12:29:43.584Z,97998.63
2022-10-13T12:32:23.438Z,97994.86
2022-10-13T12:34:57.601Z,97991.80
2022-10-13T12:37:33.611Z,97992.77
2022-10-13T12:40:05.955Z,97989.05
2022-10-13T12:42:40.439Z,97981.17
2022-10-13T12:45:18.831Z,97983.15
2022-10-13T12:47:59.442Z,97983.27
2022-10-13T12:50:47.762Z,97980.04
2022-10-13T12:53:24.754Z,97979.77
2022-10-13T12:56:00.563Z,97978.02
2022-10-13T12:58:44.324Z,97975.27
2022-10-13T13:01:35.176Z,97974.80
2022-10-13T13:04:29.624Z,97973.39
2022-10-13T13:07:27.216Z,97967.76
2022-10-13T13:10:17.998Z,97966.48
2022-10-13T13:12:49.721Z,97966.67
2022-10-13T13:15:34.715Z,97965.11
2022-10-13T13:18:36.821Z,97962.88
2022-10-13T13:21:10.172Z,97964.04
2022-10-13T13:23:41.376Z,97966.48
2022-10-13T13:26:19.955Z,97966.01
2022-10-13T13:28:54.045Z,97966.52
2022-10-13T13:31:26.823Z,97967.36
2022-10-13T13:33:57.895Z,97966.73
2022-10-13T13:36:30.866Z,97965.98
2022-10-13T13:39:01.877Z,97962.10
2022-10-13T13:41:33.070Z,97960.06
2022-10-13T13:44:04.801Z,97960.51
2022-10-13T13:46:36.356Z,97959.48
2022-10-13T13:49:13.633Z,97956.26
2022-10-13T13:51:44.714Z,97955.95
2022-10-13T13:54:15.791Z,97954.83
2022-10-13T13:56:47.787Z,97954.73
2022-10-13T13:59:18.893Z,97954.09
2022-10-13T14:01:50.105Z,97953.41
2022-10-13T14:04:21.717Z,97951.11
2022-10-13T14:06:54.002Z,97946.58
2022-10-13T14:09:24.928Z,97950.08
2022-10-13T14:11:56.405Z,97948.28
2022-10-13T14:14:28.220Z,97949.73
2022-10-13T14:16:59.192Z,97940.13
2022-10-13T14:19:30.568Z,97941.05
2022-10-13T14:22:09.206Z,97940.59
2022-10-13T14:24:43.417Z,97935.06
2022-10-13T14:27:17.706Z,97932.62
2022-10-13T14:29:48.681Z,97931.04
2022-10-13T14:32:20.096Z,97930.64
2022-10-13T14:35:20.583Z,97928.98
2022-10-13T14:38:03.617Z,97931.80
2022-10-13T14:40:34.570Z,97929.84
2022-10-13T14:43:05.629Z,97926.95
2022-10-13T14:45:36.563Z,97924.02
2022-10-13T14:48:24.680Z,97923.23
2022-10-13T14:50:56.650Z,97917.33
2022-10-13T14:53:28.501Z,97918.29
2022-10-13T14:55:59.600Z,97911.44
2022-10-13T14:58:31.023Z,97917.70
2022-10-13T15:01:02.053Z,97915.21
2022-10-13T15:03:33.489Z,97914.10
2022-10-13T15:06:04.303Z,97911.97
2022-10-13T15:08:35.227Z,97919.96
2022-10-13T15:11:06.756Z,97915.70
2022-10-13T15:13:38.094Z,97917.15
2022-10-13T15:16:16.368Z,97918.97
2022-10-13T15:18:47.773Z,97924.55
2022-10-13T15:21:18.819Z,97923.59
2022-10-13T15:23:49.963Z,97917.68
2022-10-13T15:26:21.792Z,97917.90
2022-10-13T15:28:54.397Z,97914.04
2022-10-13T15:31:25.632Z,97908.75
2022-10-13T15:33:56.462Z,97911.83
2022-10-13T15:36:27.796Z,97911.41
2022-10-13T15:38:58.963Z,97909.27
2022-10-13T15:41:30.040Z,97908.06
2022-10-13T15:44:00.841Z,97907.18
2022-10-13T15:46:31.762Z,97904.60
2022-10-13T15:49:02.842Z,97899.64
2022-10-13T15:51:33.949Z,97902.09
2022-10-13T15:54:05.309Z,97896.59
2022-10-13T15:56:36.623Z,97900.64
2022-10-13T15:59:07.802Z,97895.25
2022-10-13T16:01:38.662Z,97897.71
2022-10-13T16:04:09.599Z,97898.23
2022-10-13T16:06:49.044Z,97893.46
2022-10-13T16:09:22.782Z,97895.13
2022-10-13T16:11:55.189Z,97898.02
2022-10-13T16:14:26.303Z,97902.08
2022-10-13T16:20:45.362Z,97904.18
2022-10-13T16:23:19.636Z,97905.05
2022-10-13T16:25:50.647Z,97902.70
2022-10-13T16:28:21.730Z,97897.77
2022-10-13T16:30:52.753Z,97899.35
2022-10-13T16:33:24.011Z,97897.04
2022-10-13T16:36:02.640Z,97904.05
2022-10-13T16:38:33.374Z,97906.53
2022-10-13T16:41:07.693Z,97904.00
2022-10-13T16:43:38.456Z,97898.27
2022-10-13T16:46:13.332Z,97902.23
2022-10-13T16:48:45.631Z,97903.20
2022-10-13T16:51:21.312Z,97903.92
2022-10-13T16:53:53.730Z,97903.57
2022-10-13T16:56:25.790Z,97896.95
2022-10-13T16:59:09.336Z,97900.63
2022-10-13T17:02:44.307Z,97898.82
2022-10-13T17:05:18.270Z,97895.59
2022-10-13T17:07:49.268Z,97895.21
2022-10-13T17:10:20.513Z,97900.34
2022-10-13T17:12:51.549Z,97897.65
2022-10-13T17:15:23.459Z,97898.83
2022-10-13T17:17:54.543Z,97895.46
2022-10-13T17:20:25.444Z,97893.73
2022-10-13T17:22:54.774Z,97899.77
2022-10-13T17:25:26.082Z,97898.92
2022-10-13T17:27:57.052Z,97892.97
2022-10-13T17:30:28.026Z,97902.27
2022-10-13T17:33:04.047Z,97899.50
2022-10-13T17:35:35.507Z,97899.01
2022-10-13T17:38:06.663Z,97898.63
2022-10-13T17:40:39.255Z,97900.09
2022-10-13T17:43:10.086Z,97900.24
2022-10-13T17:45:39.410Z,97898.85
2022-10-13T17:48:14.079Z,97900.27
2022-10-13T17:50:45.712Z,97899.18
2022-10-13T17:53:17.030Z,97896.90
2022-10-13T17:55:48.466Z,97895.27
2022-10-13T17:58:19.570Z,97896.41
2022-10-13T18:01:11.859Z,97895.48
2022-10-13T18:03:45.990Z,97891.02
2022-10-13T18:06:17.720Z,97877.90
2022-10-13T18:08:50.323Z,97888.85
2022-10-13T18:11:23.297Z,97882.48
2022-10-13T18:13:54.725Z,97878.86
2022-10-13T18:16:26.188Z,97880.00
2022-10-13T18:18:57.376Z,97887.98
2022-10-13T18:21:29.443Z,97886.68
2022-10-13T18:24:02.708Z,97885.25
2022-10-13T18:26:36.102Z,97881.69
2022-10-13T18:29:08.872Z,97884.10
2022-10-13T18:31:41.657Z,97885.94
2022-10-13T18:34:15.674Z,97886.14
2022-10-13T18:36:48.346Z,97883.10
2022-10-13T18:39:20.855Z,97888.33
2022-10-13T18:41:53.263Z,97891.37
2022-10-13T18:48:47.939Z,97899.34
2022-10-13T18:51:20.439Z,97898.13
2022-10-13T18:53:52.472Z,97892.02
2022-10-13T18:56:25.455Z,97897.73
2022-10-13T18:58:59.843Z,97897.36
2022-10-13T19:01:32.711Z,97897.26
2022-10-13T19:04:03.660Z,97895.71
2022-10-13T19:06:35.599Z,97896.45
2022-10-13T19:09:08.803Z,97897.29
2022-10-13T19:11:40.633Z,97901.02
2022-10-13T19:14:14.313Z,97898.09
2022-10-13T19:16:45.988Z,97894.52
2022-10-13T19:19:17.119Z,97898.77
2022-10-13T19:21:48.184Z,97896.49
2022-10-13T19:24:17.449Z,97895.14
2022-10-13T19:26:48.733Z,97891.21
2022-10-13T19:29:19.458Z,97895.21
2022-10-13T19:31:50.271Z,97897.95
2022-10-13T19:34:21.517Z,97897.14
2022-10-13T19:36:52.860Z,97894.52
2022-10-13T19:39:25.591Z,97892.44
2022-10-13T19:41:58.233Z,97888.81
2022-10-13T19:44:29.346Z,97892.02
2022-10-13T19:47:00.418Z,97889.07
2022-10-13T19:49:30.401Z,97894.61
2022-10-13T19:52:01.470Z,97896.52
2022-10-13T19:54:35.017Z,97888.10
2022-10-13T19:57:06.218Z,97900.38
2022-10-13T19:59:37.246Z,97895.16
2022-10-13T20:02:08.258Z,97889.27
2022-10-13T20:04:39.548Z,97886.50
2022-10-13T20:07:10.687Z,97887.22
2022-10-13T20:09:41.754Z,97891.35
2022-10-13T20:12:12.518Z,97893.70
2022-10-13T20:14:43.550Z,97899.86
2022-10-13T20:17:14.637Z,97896.25
2022-10-13T20:19:45.596Z,97894.17
2022-10-13T20:22:16.466Z,97892.84
2022-10-13T20:24:47.483Z,97896.91
2022-10-13T20:27:18.886Z,97898.83
2022-10-13T20:29:50.837Z,97900.48
2022-10-13T20:32:21.534Z,97900.98
2022-10-13T20:34:52.548Z,97895.19
2022-10-13T20:37:23.680Z,97892.62
2022-10-13T20:39:55.004Z,97892.58
2022-10-13T20:42:26.205Z,97898.13
2022-10-13T20:44:55.437Z,97893.81
2022-10-13T20:47:26.313Z,97894.63
2022-10-13T20:49:57.232Z,97893.60
2022-10-13T20:52:28.243Z,97896.30
2022-10-13T20:54:59.091Z,97896.57
2022-10-13T20:57:30.468Z,97896.92
2022-10-13T21:00:01.451Z,97894.27
2022-10-13T21:02:32.588Z,97891.11
2022-10-13T21:05:03.620Z,97889.83
2022-10-13T21:07:34.645Z,97897.98
2022-10-13T21:10:03.983Z,97902.53
2022-10-13T21:12:34.921Z,97896.64
2022-10-13T21:15:06.567Z,97893.77
2022-10-13T21:17:41.689Z,97895.64
2022-10-13T21:20:15.076Z,97893.70
2022-10-13T21:22:46.164Z,97895.66
2022-10-13T21:25:17.710Z,97893.95
2022-10-13T21:27:48.938Z,97892.39
2022-10-13T21:30:20.235Z,97886.81
2022-10-13T21:32:51.517Z,97883.38
2022-10-13T21:35:22.777Z,97881.64
2022-10-13T21:37:54.125Z,97880.91
2022-10-13T21:40:25.075Z,97889.20
2022-10-13T21:42:56.088Z,97893.67
2022-10-13T21:45:27.373Z,97892.97
2022-10-13T21:47:59.024Z,97893.55
2022-10-13T21:50:30.845Z,97895.30
2022-10-13T21:53:01.821Z,97891.47
2022-10-13T21:55:33.171Z,97887.62
2022-10-13T21:58:05.342Z,97884.29
2022-10-13T22:00:36.741Z,97882.71
2022-10-13T22:03:08.399Z,97886.97
2022-10-13T22:05:39.386Z,97886.11
2022-10-13T22:08:10.938Z,97885.33
2022-10-13T22:10:42.075Z,97883.48
2022-10-13T22:13:13.285Z,97884.92
2022-10-13T22:19:44.652Z,97875.06
2022-10-13T22:22:18.612Z,97873.84
2022-10-13T22:24:49.612Z,97869.17
2022-10-13T22:27:20.723Z,97865.50
2022-10-13T22:29:52.087Z,97873.95
2022-10-13T22:32:23.141Z,97876.96
2022-10-13T22:34:53.926Z,97876.59
2022-10-13T22:37:25.023Z,97862.77
2022-10-13T22:39:55.806Z,97863.23
2022-10-13T22:42:27.155Z,97868.25
2022-10-13T22:44:58.238Z,97868.77
2022-10-13T22:47:29.206Z,97871.70
2022-10-13T22:49:58.831Z,97867.56
2022-10-13T22:52:29.677Z,97862.95
2022-10-13T22:54:59.127Z,97859.89
2022-10-13T22:57:29.999Z,97861.48
2022-10-13T22:59:59.488Z,97861.00
2022-10-13T23:02:30.369Z,97860.70
2022-10-13T23:05:16.891Z,97858.20
2022-10-13T23:07:50.868Z,97854.67
2022-10-13T23:10:21.814Z,97851.54
2022-10-13T23:12:52.710Z,97849.16
2022-10-13T23:15:24.021Z,97849.23
2022-10-13T23:17:53.436Z,97847.81
2022-10-13T23:20:25.570Z,97851.77
2022-10-13T23:22:55.021Z,97853.39
2022-10-13T23:25:25.745Z,97850.61
2022-10-13T23:27:56.867Z,97854.78
2022-10-13T23:30:26.372Z,97849.95
2022-10-13T23:32:57.451Z,97852.98
2022-10-13T23:35:28.559Z,97851.73
2022-10-13T23:38:00.518Z,97852.47
2022-10-13T23:40:31.651Z,97854.66
2022-10-13T23:43:01.126Z,97853.46
2022-10-13T23:45:32.301Z,97853.79
2022-10-13T23:48:03.771Z,97846.50
2022-10-13T23:50:35.175Z,97852.34
2022-10-13T23:53:06.466Z,97850.90
2022-10-13T23:55:41.145Z,97856.75
2022-10-13T23:58:12.497Z,97861.02
